Time;durP1;ratioP1;P1;durP2;ratioP2;P2;SDS_P1;SDS_P2;PMS_P1;PMS_P2;Temp;Humidity;BMP_temperature;BMP_pressure;BME280_temperature;BME280_humidity;BME280_pressure;Samples;Min_cycle;Max_cycle;Signal;HPM_P1;HPM_P2
2023/01/03 00:00:12;;;;;;;3.92;3.83;;;;;;;6.76;100.00;102483.72;10369462;28;20508;-71
2023/01/03 00:05:14;;;;;;;4.13;4.03;;;;;;;7.07;100.00;102480.63;10348645;28;20050;-72
2023/01/03 00:10:17;;;;;;;3.45;3.35;;;;;;;6.53;100.00;102486.63;10360261;28;20045;-72
2023/01/03 00:15:19;;;;;;;6.93;6.72;;;;;;;6.64;100.00;102484.75;10377993;28;20405;-72
2023/01/03 00:20:22;;;;;;;5.25;5.05;;;;;;;6.58;100.00;102496.97;10337731;28;20054;-71
2023/01/03 00:25:25;;;;;;;6.57;6.30;;;;;;;6.62;100.00;102494.31;10336741;28;20046;-72
2023/01/03 00:30:27;;;;;;;4.53;4.43;;;;;;;6.40;100.00;102492.88;10337690;28;20053;-72
2023/01/03 00:35:30;;;;;;;4.13;4.03;;;;;;;6.51;100.00;102502.25;10363733;28;20050;-72
2023/01/03 00:40:32;;;;;;;4.18;4.07;;;;;;;6.30;100.00;102505.13;10343520;28;20101;-72
2023/01/03 00:45:34;;;;;;;3.92;3.83;;;;;;;6.54;100.00;102506.56;10335961;28;20073;-72
2023/01/03 00:50:37;;;;;;;5.32;5.15;;;;;;;6.29;100.00;102519.88;10376723;28;20508;-72
2023/01/03 00:55:39;;;;;;;4.00;3.90;;;;;;;6.30;100.00;102521.63;10373465;28;20507;-72
2023/01/03 01:00:41;;;;;;;4.32;4.22;;;;;;;6.29;100.00;102532.88;10340750;28;20050;-72
2023/01/03 01:05:44;;;;;;;6.88;6.68;;;;;;;6.04;100.00;102527.09;10334647;28;20053;-72
2023/01/03 01:11:00;;;;;;;4.32;4.22;;;;;;;5.91;100.00;102526.31;10336060;28;20062;-72
2023/01/03 01:16:09;;;;;;;5.88;5.68;;;;;;;5.72;100.00;102530.84;10333650;28;20054;-72
2023/01/03 01:21:14;;;;;;;4.70;4.60;;;;;;;5.85;100.00;102541.13;10343701;28;20412;-72
2023/01/03 01:26:21;;;;;;;5.03;4.93;;;;;;;5.79;100.00;102554.19;10375487;28;20042;-72
2023/01/03 01:31:25;;;;;;;28.00;18.92;;;;;;;5.73;100.00;102555.97;10372948;28;20042;-72
2023/01/03 01:36:32;;;;;;;4.13;4.03;;;;;;;5.66;100.00;102567.28;10390229;28;20413;-72
2023/01/03 01:46:56;;;;;;;4.75;4.65;;;;;;;5.41;100.00;102566.59;10333943;28;20046;-72
2023/01/03 01:51:59;;;;;;;5.28;5.18;;;;;;;4.95;100.00;102572.97;10343325;28;20053;-72
2023/01/03 01:57:01;;;;;;;4.97;4.88;;;;;;;5.19;100.00;102586.69;10366636;28;20046;-72
2023/01/03 02:02:03;;;;;;;4.15;4.05;;;;;;;5.14;100.00;102578.06;10331155;28;20046;-72
2023/01/03 02:07:06;;;;;;;4.47;4.38;;;;;;;5.09;100.00;102583.25;10316479;28;20576;-72
2023/01/03 02:18:18;;;;;;;4.40;4.30;;;;;;;5.45;100.00;102596.91;10336934;28;20449;-72
2023/01/03 02:23:44;;;;;;;4.28;4.18;;;;;;;5.59;100.00;102581.19;10332902;28;20054;-72
2023/01/03 02:29:08;;;;;;;5.28;5.15;;;;;;;5.87;100.00;102592.22;10333397;28;20551;-72
2023/01/03 02:34:30;;;;;;;7.32;6.60;;;;;;;6.04;100.00;102596.44;10336292;28;20102;-72
2023/01/03 02:39:37;;;;;;;5.32;5.20;;;;;;;5.92;100.00;102590.44;10332634;28;20054;-72
2023/01/03 02:44:51;;;;;;;4.55;4.45;;;;;;;5.83;100.00;102600.91;10332664;28;20054;-73
2023/01/03 02:49:53;;;;;;;;;;;;;;;6.16;100.00;102588.50;10355502;28;20054;-72
2023/01/03 02:54:58;;;;;;;3.42;3.33;;;;;;;5.85;100.00;102590.50;10370823;28;19921;-72
2023/01/03 03:00:08;;;;;;;4.10;4.00;;;;;;;5.63;100.00;102587.22;10341831;28;20058;-72
2023/01/03 03:05:17;;;;;;;6.85;6.65;;;;;;;5.47;100.00;102578.72;10330986;28;20047;-72
2023/01/03 03:16:04;;;;;;;5.37;5.17;;;;;;;5.15;100.00;102569.41;10373589;28;20049;-72
2023/01/03 03:26:37;;;;;;;5.00;4.80;;;;;;;4.54;100.00;102561.06;10338608;28;20054;-72
2023/01/03 03:31:45;;;;;;;5.00;4.90;;;;;;;4.40;100.00;102562.81;10322198;28;20126;-72
2023/01/03 03:37:02;;;;;;;4.57;4.47;;;;;;;4.50;100.00;102569.72;10321246;28;20042;-72
2023/01/03 03:48:28;;;;;;;3.83;3.73;;;;;;;3.79;100.00;102571.59;10378932;28;20061;-72
2023/01/03 03:53:33;;;;;;;3.85;3.75;;;;;;;3.81;100.00;102575.03;10375898;28;20414;-72
2023/01/03 03:58:40;;;;;;;4.38;4.28;;;;;;;3.92;100.00;102588.88;10360860;28;20058;-72
2023/01/03 04:03:44;;;;;;;4.03;3.92;;;;;;;3.68;100.00;102597.50;10337618;28;20053;-72
2023/01/03 04:08:46;;;;;;;2.95;2.90;;;;;;;3.81;100.00;102595.78;10333687;28;20096;-72
2023/01/03 04:13:48;;;;;;;2.95;2.90;;;;;;;3.56;100.00;102603.53;10377536;28;20042;-72
2023/01/03 04:18:51;;;;;;;3.90;3.75;;;;;;;3.13;100.00;102617.28;10357505;28;20061;-72
2023/01/03 04:23:53;;;;;;;3.35;3.25;;;;;;;3.33;100.00;102606.97;10336780;28;20042;-72
2023/01/03 04:28:55;;;;;;;3.60;3.50;;;;;;;3.32;100.00;102605.22;10352810;28;20097;-72
2023/01/03 04:33:58;;;;;;;3.28;3.17;;;;;;;3.16;100.00;102619.00;10339705;28;20100;-72
2023/01/03 04:39:00;;;;;;;4.07;3.97;;;;;;;3.15;100.00;102602.59;10369137;28;20046;-71
2023/01/03 04:44:03;;;;;;;3.08;3.00;;;;;;;3.04;100.00;102608.63;10360242;28;20042;-71
2023/01/03 04:49:07;;;;;;;4.32;4.22;;;;;;;2.96;100.00;102619.81;10374901;28;20512;-71
2023/01/03 04:54:10;;;;;;;3.95;3.85;;;;;;;3.08;100.00;102620.72;10376028;28;20056;-72
2023/01/03 04:59:12;;;;;;;5.07;4.88;;;;;;;3.05;100.00;102618.13;10368735;28;20050;-71
2023/01/03 05:04:14;;;;;;;3.10;3.00;;;;;;;2.98;100.00;102619.81;10376278;28;20488;-71
2023/01/03 05:09:17;;;;;;;3.47;3.33;;;;;;;3.14;100.00;102610.38;10339632;28;20058;-71
2023/01/03 05:14:19;;;;;;;3.50;3.40;;;;;;;3.38;100.00;102606.97;10334134;28;20049;-71
2023/01/03 05:19:21;;;;;;;4.22;4.03;;;;;;;3.15;100.00;102601.75;10336002;28;20054;-71
2023/01/03 05:29:46;;;;;;;77.95;34.40;;;;;;;3.17;100.00;102603.47;10375995;28;20065;-71
2023/01/03 05:34:48;;;;;;;2.38;2.28;;;;;;;3.20;100.00;102599.19;10374003;28;20474;-71
2023/01/03 05:39:51;;;;;;;1.60;1.60;;;;;;;3.27;100.00;102612.13;10340998;28;20453;-72
2023/01/03 05:44:53;;;;;;;1.50;1.50;;;;;;;3.27;100.00;102603.50;10332518;28;20397;-72
2023/01/03 05:49:55;;;;;;;1.58;1.58;;;;;;;3.35;100.00;102606.97;10334178;28;20378;-72
2023/01/03 05:54:57;;;;;;;1.40;1.40;;;;;;;3.56;100.00;102607.84;10334630;28;20050;-72
2023/01/03 06:00:00;;;;;;;2.00;2.00;;;;;;;3.45;100.00;102603.53;10332972;28;20046;-72
2023/01/03 06:05:02;;;;;;;1.20;1.20;;;;;;;3.47;100.00;102603.53;10333880;28;20046;-71
2023/01/03 06:10:05;;;;;;;1.85;1.85;;;;;;;3.68;100.00;102597.50;10373638;28;20108;-72
2023/01/03 06:15:08;;;;;;;1.80;1.80;;;;;;;3.80;100.00;102594.03;10372806;28;20440;-71
2023/01/03 06:20:10;;;;;;;1.85;1.85;;;;;;;3.89;100.00;102594.03;10342365;28;20113;-72
2023/01/03 06:25:13;;;;;;;1.80;1.73;;;;;;;3.86;100.00;102588.88;10333073;28;20533;-71
2023/01/03 06:30:15;;;;;;;1.60;1.60;;;;;;;3.90;100.00;102595.75;10374418;28;20065;-72
2023/01/03 06:35:18;;;;;;;1.90;1.90;;;;;;;3.94;100.00;102594.91;10374245;28;20092;-71
2023/01/03 06:40:20;;;;;;;1.80;1.80;;;;;;;3.84;100.00;102590.59;10340331;28;20449;-71
2023/01/03 06:56:05;;;;;;;2.10;2.10;;;;;;;3.91;100.00;102594.91;10333674;28;20535;-71
2023/01/03 07:01:07;;;;;;;1.55;1.55;;;;;;;3.89;100.00;102594.91;10337516;28;20477;-71
2023/01/03 07:06:10;;;;;;;3.10;2.90;;;;;;;3.89;100.00;102578.50;10339433;28;20085;-72
2023/01/03 07:11:12;;;;;;;151.07;66.25;;;;;;;3.87;100.00;102586.28;10339276;28;20051;-71
2023/01/03 07:16:16;;;;;;;1999.90;999.90;;;;;;;3.84;100.00;102582.81;10340539;28;20050;-71
2023/01/03 07:21:18;;;;;;;1999.90;999.90;;;;;;;3.79;100.00;102588.00;10337066;28;20054;-71
2023/01/03 07:26:23;;;;;;;1999.90;999.90;;;;;;;3.85;100.00;102593.19;10338978;28;20053;-71
2023/01/03 07:31:25;;;;;;;1999.90;999.90;;;;;;;3.81;100.00;102590.59;10337970;28;20134;-71
2023/01/03 07:36:28;;;;;;;1999.90;999.90;;;;;;;4.00;100.00;102594.91;10315940;28;20544;-71
2023/01/03 07:46:51;;;;;;;1999.90;999.90;;;;;;;4.05;100.00;102600.06;10339368;28;20121;-71
2023/01/03 07:51:54;;;;;;;1999.90;999.90;;;;;;;4.08;100.00;102593.19;10337405;28;20096;-72
2023/01/03 07:56:56;;;;;;;1999.90;999.90;;;;;;;4.11;100.00;102596.63;10369274;28;20493;-71
2023/01/03 08:01:58;;;;;;;1999.90;999.90;;;;;;;4.25;100.00;102603.50;10377974;28;20053;-71
2023/01/03 08:07:01;;;;;;;1999.90;999.90;;;;;;;4.50;100.00;102603.44;10350159;28;20058;-71
2023/01/03 08:17:24;;;;;;;9.80;9.23;;;;;;;4.57;100.00;102614.66;10337866;28;20050;-72
2023/01/03 08:22:28;;;;;;;7.03;6.72;;;;;;;4.82;100.00;102618.91;10320914;28;20077;-72
2023/01/03 08:27:30;;;;;;;7.63;7.28;;;;;;;4.74;100.00;102615.47;10295894;28;20050;-73
2023/01/03 08:32:33;;;;;;;7.90;7.70;;;;;;;4.89;100.00;102609.31;10296847;28;20510;-72
2023/01/03 08:37:35;;;;;;;10.02;9.63;;;;;;;4.97;100.00;102622.28;10299114;28;20073;-72
2023/01/03 08:42:38;;;;;;;9.13;8.70;;;;;;;5.04;100.00;102621.38;10345694;28;20050;-72
2023/01/03 08:47:41;;;;;;;7.32;7.10;;;;;;;5.20;100.00;102640.34;10342223;28;20050;-72
2023/01/03 08:52:44;;;;;;;8.63;8.27;;;;;;;5.19;100.00;102638.59;10336281;28;20481;-72
2023/01/03 08:57:46;;;;;;;8.93;8.52;;;;;;;5.36;100.00;102644.59;10336652;28;20053;-72
2023/01/03 09:02:48;;;;;;;9.73;9.27;;;;;;;5.40;100.00;102651.47;10336497;28;20053;-72
2023/01/03 09:07:53;;;;;;;9.07;8.77;;;;;;;5.68;100.00;102650.44;10335146;28;20105;-72
2023/01/03 09:12:56;;;;;;;8.60;8.20;;;;;;;5.74;100.00;102651.25;10334948;28;20058;-72
2023/01/03 09:17:58;;;;;;;9.93;9.60;;;;;;;5.84;100.00;102653.78;10334615;28;20042;-72
2023/01/03 09:23:00;;;;;;;8.10;7.90;;;;;;;5.81;100.00;102639.06;10335706;28;20050;-72
2023/01/03 09:28:03;;;;;;;9.55;9.10;;;;;;;5.92;100.00;102641.59;10334434;28;20042;-72
2023/01/03 09:33:05;;;;;;;10.15;9.75;;;;;;;6.13;100.00;102637.97;10335488;28;20057;-73
2023/01/03 09:38:09;;;;;;;9.30;8.98;;;;;;;6.09;100.00;102649.28;10333969;28;20050;-73
2023/01/03 09:43:21;;;;;;;9.80;9.40;;;;;;;6.24;100.00;102646.53;10333239;28;20387;-73
2023/01/03 09:48:37;;;;;;;9.70;9.30;;;;;;;6.09;100.00;102641.47;10333209;28;20398;-73
2023/01/03 10:04:35;;;;;;;11.32;10.45;;;;;;;6.32;100.00;102641.22;10333587;28;19921;-73
2023/01/03 10:09:52;;;;;;;10.90;10.50;;;;;;;6.25;100.00;102640.44;10334332;28;20050;-73
2023/01/03 10:15:14;;;;;;;10.68;10.07;;;;;;;6.45;100.00;102627.22;10332422;28;20478;-73
2023/01/03 10:20:53;;;;;;;9.25;8.60;;;;;;;6.63;100.00;102644.38;10333749;28;20138;-73
2023/01/03 10:25:55;;;;;;;11.13;10.57;;;;;;;6.55;100.00;102642.75;10317546;28;20051;-73
2023/01/03 10:31:17;;;;;;;8.85;8.55;;;;;;;6.63;100.00;102641.78;10336705;28;20054;-73
2023/01/03 10:36:20;;;;;;;11.17;10.50;;;;;;;6.67;100.00;102646.09;10341496;28;20058;-73
2023/01/03 10:41:55;;;;;;;9.40;9.07;;;;;;;6.65;100.00;102633.94;10340198;28;20054;-73
2023/01/03 10:47:19;;;;;;;11.23;10.43;;;;;;;6.63;100.00;102627.91;10323165;28;20051;-73
2023/01/03 10:52:22;;;;;;;7.00;6.80;;;;;;;6.81;100.00;102626.84;10341005;28;20485;-73
2023/01/03 10:57:42;;;;;;;10.23;9.77;;;;;;;6.89;100.00;102614.56;10340167;28;20100;-73
2023/01/03 11:02:46;;;;;;;10.20;9.90;;;;;;;7.02;100.00;102623.94;10341248;28;20057;-73
2023/01/03 11:07:59;;;;;;;8.73;8.43;;;;;;;7.00;100.00;102620.50;10339223;28;20526;-73
2023/01/03 11:13:24;;;;;;;9.07;8.77;;;;;;;6.95;100.00;102624.91;10339706;28;20081;-73
2023/01/03 11:18:28;;;;;;;11.75;11.15;;;;;;;7.03;100.00;102619.59;10339937;28;20050;-73
2023/01/03 11:23:42;;;;;;;9.48;8.98;;;;;;;7.00;100.00;102610.06;10338626;28;20383;-73
2023/01/03 11:29:16;;;;;;;11.60;11.00;;;;;;;7.12;100.00;102596.03;10340281;28;20053;-73
2023/01/03 11:34:24;;;;;;;9.05;8.75;;;;;;;7.31;100.00;102591.41;10395385;23;20494;-75
2023/01/03 11:39:59;;;;;;;16.35;15.13;;;;;;;7.18;100.00;102592.50;10503951;28;20052;-75
2023/01/03 11:45:17;;;;;;;10.75;10.25;;;;;;;7.30;100.00;102576.66;10501917;28;20048;-75
2023/01/03 11:50:26;;;;;;;8.10;7.90;;;;;;;7.43;100.00;102577.31;10502419;28;20071;-75
2023/01/03 11:55:35;;;;;;;15.52;14.02;;;;;;;7.22;100.00;102568.94;10502688;28;20048;-76
2023/01/03 12:01:00;;;;;;;8.75;8.45;;;;;;;7.52;100.00;102569.38;10503116;28;20057;-75
2023/01/03 12:06:29;;;;;;;12.85;11.93;;;;;;;7.37;100.00;102553.97;10502947;28;20048;-75
2023/01/03 12:12:01;;;;;;;8.15;7.88;;;;;;;7.41;100.00;102540.88;10479687;28;20052;-75
2023/01/03 12:17:14;;;;;;;7.95;7.75;;;;;;;7.59;100.00;102544.06;10501278;28;20045;-75
2023/01/03 12:22:24;;;;;;;9.27;8.98;;;;;;;7.66;100.00;102543.06;10502868;28;20075;-75
2023/01/03 12:27:31;;;;;;;12.48;11.70;;;;;;;7.49;100.00;102539.91;10483681;28;20056;-76
2023/01/03 12:32:53;;;;;;;9.65;9.35;;;;;;;7.51;100.00;102543.31;10500636;28;20045;-75
2023/01/03 12:37:58;;;;;;;8.90;8.60;;;;;;;7.67;100.00;102536.97;10499655;28;20059;-76
2023/01/03 12:43:13;;;;;;;10.65;9.82;;;;;;;7.52;100.00;102532.88;10499559;28;20079;-76
2023/01/03 12:49:01;;;;;;;8.57;8.30;;;;;;;7.66;100.00;102534.38;10499390;28;20044;-76
2023/01/03 12:54:42;;;;;;;7.50;7.30;;;;;;;7.72;100.00;102529.94;10497329;28;20127;-76
2023/01/03 13:00:19;;;;;;;11.43;11.02;;;;;;;7.69;100.00;102523.91;10498762;28;20487;-75
2023/01/03 13:05:33;;;;;;;10.30;9.90;;;;;;;7.77;100.00;102520.28;10466927;28;20407;-75
2023/01/03 13:10:39;;;;;;;9.20;8.90;;;;;;;8.05;100.00;102509.31;10499638;28;20488;-75
2023/01/03 13:15:42;;;;;;;10.15;9.85;;;;;;;8.14;100.00;102514.38;10482340;28;20044;-76
2023/01/03 13:20:46;;;;;;;9.68;9.38;;;;;;;8.28;100.00;102502.78;10498662;28;20064;-76
2023/01/03 13:26:06;;;;;;;8.88;8.57;;;;;;;7.95;100.00;102508.66;10498524;28;20040;-76
2023/01/03 13:31:17;;;;;;;9.60;9.30;;;;;;;8.03;100.00;102499.81;10498850;28;20410;-75
2023/01/03 13:36:20;;;;;;;7.55;7.35;;;;;;;7.68;100.00;102498.72;10499334;28;20056;-76
2023/01/03 13:41:36;;;;;;;8.38;8.07;;;;;;;7.81;100.00;102493.25;10497982;28;20048;-76
2023/01/03 13:46:39;;;;;;;9.50;9.20;;;;;;;7.73;100.00;102491.66;10497921;28;20055;-75
2023/01/03 13:51:47;;;;;;;11.75;11.07;;;;;;;7.86;100.00;102481.88;10497078;28;20578;-75
2023/01/03 13:56:51;;;;;;;8.27;8.07;;;;;;;7.98;100.00;102473.81;10497552;28;20049;-76
2023/01/03 14:02:08;;;;;;;9.60;9.30;;;;;;;8.27;100.00;102481.06;10498633;28;20048;-76
2023/01/03 14:07:38;;;;;;;10.43;9.70;;;;;;;8.13;100.00;102468.28;10498050;28;20051;-76
2023/01/03 14:13:29;;;;;;;9.10;8.80;;;;;;;8.20;100.00;102463.78;10498262;28;20051;-76
2023/01/03 14:18:31;;;;;;;9.82;9.52;;;;;;;8.03;100.00;102473.72;10488739;28;20041;-76
2023/01/03 14:23:34;;;;;;;9.25;8.95;;;;;;;8.19;100.00;102475.16;10496938;28;20048;-76
2023/01/03 14:28:57;;;;;;;8.77;8.23;;;;;;;7.82;100.00;102468.91;10497382;28;20139;-76
2023/01/03 14:34:01;;;;;;;11.05;10.55;;;;;;;7.88;100.00;102469.66;10497210;28;20072;-75
2023/01/03 14:39:04;;;;;;;9.55;9.25;;;;;;;7.71;100.00;102463.00;10495975;28;20407;-76
2023/01/03 14:44:12;;;;;;;9.88;9.57;;;;;;;7.89;100.00;102469.63;10496543;28;20051;-76
2023/01/03 14:49:38;;;;;;;9.02;8.73;;;;;;;7.72;100.00;102461.28;10497724;28;20048;-76
2023/01/03 14:54:47;;;;;;;10.18;9.77;;;;;;;7.57;100.00;102471.09;10495746;28;20059;-76
2023/01/03 14:59:50;;;;;;;10.45;9.98;;;;;;;7.60;100.00;102475.41;10496323;28;20048;-76
2023/01/03 15:04:55;;;;;;;8.80;8.50;;;;;;;7.66;100.00;102471.81;10496198;28;20048;-76
2023/01/03 15:10:11;;;;;;;8.95;8.65;;;;;;;7.57;100.00;102472.84;10496141;28;20057;-77
2023/01/03 15:15:27;;;;;;;9.23;8.93;;;;;;;7.48;100.00;102475.59;10497084;28;20110;-76
2023/01/03 15:20:41;;;;;;;10.30;9.48;;;;;;;7.36;100.00;102467.13;10502846;28;20090;-76
2023/01/03 15:25:43;;;;;;;9.75;9.45;;;;;;;7.33;100.00;102458.50;10486730;28;20102;-77
2023/01/03 15:30:48;;;;;;;8.85;8.55;;;;;;;7.41;100.00;102449.69;10504166;28;20056;-77
2023/01/03 15:35:51;;;;;;;9.48;9.18;;;;;;;7.17;100.00;102458.75;10518820;28;20049;-76
2023/01/03 15:40:53;;;;;;;9.60;9.10;;;;;;;6.98;100.00;102462.56;10502783;28;20128;-76
2023/01/03 15:46:02;;;;;;;10.00;9.70;;;;;;;6.90;100.00;102460.06;10502512;28;20048;-76
2023/01/03 15:51:05;;;;;;;8.60;8.32;;;;;;;6.75;100.00;102455.94;10503578;28;20044;-76
2023/01/03 15:56:20;;;;;;;10.10;9.75;;;;;;;6.97;100.00;102455.63;10502531;28;20056;-76
2023/01/03 16:01:23;;;;;;;204.27;116.22;;;;;;;6.67;100.00;102458.69;10501372;28;20048;-76
2023/01/03 16:06:26;;;;;;;10.43;10.13;;;;;;;6.84;100.00;102449.72;10502372;28;20515;-76
2023/01/03 16:11:30;;;;;;;1999.90;999.90;;;;;;;6.68;100.00;102449.13;10500848;28;20553;-76
2023/01/03 16:16:39;;;;;;;1999.90;999.90;;;;;;;6.44;100.00;102451.19;10501449;28;20040;-76
2023/01/03 16:21:41;;;;;;;6.55;6.35;;;;;;;6.63;100.00;102456.97;10500549;28;20495;-76
2023/01/03 16:27:13;;;;;;;10.25;9.32;;;;;;;6.49;100.00;102461.53;10500423;28;20446;-76
2023/01/03 16:32:26;;;;;;;8.23;8.02;;;;;;;6.63;100.00;102461.34;10500812;28;20052;-76
2023/01/03 16:37:29;;;;;;;9.20;8.90;;;;;;;6.66;100.00;102443.94;10498135;28;20044;-76
2023/01/03 16:42:31;;;;;;;7.80;7.60;;;;;;;6.66;100.00;102438.72;10500170;28;20058;-76
2023/01/03 16:47:37;;;;;;;9.40;9.10;;;;;;;6.75;100.00;102422.09;10499905;28;20049;-76
2023/01/03 16:52:44;;;;;;;9.68;9.38;;;;;;;6.68;100.00;102425.69;10500318;28;20048;-76
2023/01/03 16:57:46;;;;;;;9.52;9.23;;;;;;;6.72;100.00;102426.50;10498972;28;20411;-76
2023/01/03 17:02:59;;;;;;;10.48;10.18;;;;;;;6.90;100.00;102431.41;10498833;28;20188;-76
2023/01/03 17:08:06;;;;;;;9.55;9.25;;;;;;;6.86;100.00;102422.81;10457605;28;20095;-76
2023/01/03 17:13:32;;;;;;;9.88;9.48;;;;;;;6.81;100.00;102419.41;10474278;28;20049;-76
2023/01/03 17:18:36;;;;;;;8.88;8.57;;;;;;;6.82;100.00;102421.13;10481382;28;20082;-76
2023/01/03 17:23:39;;;;;;;9.75;9.45;;;;;;;6.79;100.00;102399.47;10494997;28;20540;-77
2023/01/03 17:28:43;;;;;;;93.18;53.88;;;;;;;6.96;100.00;102396.59;10494258;28;20044;-76
2023/01/03 17:33:46;;;;;;;1999.90;999.90;;;;;;;6.99;100.00;102391.34;10480023;28;20106;-77
2023/01/03 17:38:48;;;;;;;1999.90;999.90;;;;;;;6.97;100.00;102380.94;10498610;28;20045;-77
2023/01/03 17:43:51;;;;;;;1999.90;999.90;;;;;;;6.97;100.00;102388.75;10477787;28;20048;-77
2023/01/03 17:54:14;;;;;;;1999.90;999.90;;;;;;;7.07;100.00;102390.31;10493479;28;20102;-77
2023/01/03 17:59:17;;;;;;;4.88;4.78;;;;;;;6.91;100.00;102377.59;10491962;28;20458;-77
2023/01/03 18:04:20;;;;;;;6.38;6.18;;;;;;;6.97;100.00;102367.94;10474813;28;20049;-77
2023/01/03 18:09:25;;;;;;;5.25;5.10;;;;;;;7.01;100.00;102373.94;10481715;28;20487;-77
2023/01/03 18:14:27;;;;;;;4.07;3.97;;;;;;;7.02;100.00;102373.06;10489054;28;20114;-77
2023/01/03 18:19:30;;;;;;;6.43;6.22;;;;;;;6.92;100.00;102367.16;10497148;28;20052;-77
2023/01/03 18:24:32;;;;;;;4.97;4.88;;;;;;;6.97;100.00;102367.06;10470175;28;20063;-77
2023/01/03 18:29:34;;;;;;;4.18;4.07;;;;;;;7.17;100.00;102358.91;10472657;28;20097;-77
2023/01/03 18:34:37;;;;;;;5.53;5.32;;;;;;;7.03;100.00;102353.97;10493904;28;20274;-76
2023/01/03 18:39:39;;;;;;;5.35;5.22;;;;;;;7.02;100.00;102340.06;10497818;28;20052;-77
2023/01/03 18:44:41;;;;;;;5.60;5.45;;;;;;;7.03;100.00;102320.09;10495436;28;20056;-77
2023/01/03 18:49:44;;;;;;;6.03;5.82;;;;;;;6.94;100.00;102315.91;10496548;28;20051;-77
2023/01/03 18:54:46;;;;;;;5.47;5.38;;;;;;;6.92;100.00;102309.88;10502645;28;20056;-77
2023/01/03 18:59:49;;;;;;;5.93;5.72;;;;;;;7.05;100.00;102313.13;10504407;28;20040;-76
2023/01/03 19:04:51;;;;;;;6.18;5.97;;;;;;;6.96;100.00;102300.25;10504860;28;20053;-77
2023/01/03 19:09:54;;;;;;;6.30;6.10;;;;;;;6.99;100.00;102284.56;10503888;28;20102;-77
2023/01/03 19:14:56;;;;;;;5.72;5.63;;;;;;;6.99;100.00;102282.84;10503293;28;20418;-77
2023/01/03 19:19:58;;;;;;;6.80;6.60;;;;;;;7.33;100.00;102287.41;10486358;28;20502;-77
2023/01/03 19:25:03;;;;;;;5.45;5.35;;;;;;;6.99;100.00;102282.84;10500948;28;20438;-77
2023/01/03 19:30:33;;;;;;;6.35;6.15;;;;;;;7.06;100.00;102281.84;10499437;28;20047;-77
2023/01/03 19:35:39;;;;;;;6.25;6.05;;;;;;;6.98;100.00;102285.47;10497998;28;20495;-77
2023/01/03 19:40:44;;;;;;;6.25;6.05;;;;;;;7.10;100.00;102281.78;10496715;28;20056;-77
2023/01/03 19:45:47;;;;;;;5.85;5.70;;;;;;;7.08;100.00;102292.22;10500655;28;20055;-77
2023/01/03 19:50:51;;;;;;;5.15;5.05;;;;;;;7.11;100.00;102281.75;10497678;28;20143;-77
2023/01/03 19:55:54;;;;;;;14.57;7.30;;;;;;;7.12;100.00;102231.38;10479464;28;20115;-77
2023/01/03 20:00:57;;;;;;;6.75;6.55;;;;;;;7.04;100.00;102223.72;10500797;28;20052;-77
2023/01/03 20:06:00;;;;;;;7.28;7.07;;;;;;;7.05;100.00;102233.22;10501119;28;20541;-77
2023/01/03 20:11:02;;;;;;;6.63;6.28;;;;;;;7.04;100.00;102218.50;10498524;28;20044;-77
2023/01/03 20:16:05;;;;;;;6.40;6.20;;;;;;;6.98;100.00;102216.03;10495790;28;20044;-77
2023/01/03 20:21:19;;;;;;;7.05;6.85;;;;;;;6.96;100.00;102223.00;10499803;28;20098;-77
2023/01/03 20:26:29;;;;;;;8.25;8.05;;;;;;;6.84;100.00;102212.81;10498273;28;20052;-77
2023/01/03 20:31:31;;;;;;;6.97;6.78;;;;;;;6.94;100.00;102214.34;10500408;28;20044;-77
2023/01/03 20:36:39;;;;;;;8.25;8.02;;;;;;;6.86;100.00;102195.44;10500985;28;20412;-77
2023/01/03 20:41:41;;;;;;;6.53;6.32;;;;;;;6.85;100.00;102196.31;10500567;28;20049;-77
2023/01/03 20:46:44;;;;;;;7.72;7.43;;;;;;;6.84;100.00;102177.25;10499043;28;20044;-77
2023/01/03 20:51:46;;;;;;;7.93;7.72;;;;;;;6.94;100.00;102171.84;10500016;28;20094;-77
2023/01/03 20:56:49;;;;;;;7.07;6.88;;;;;;;6.90;100.00;102163.22;10499245;28;20395;-77
2023/01/03 21:01:51;;;;;;;6.72;6.53;;;;;;;6.85;100.00;102165.06;10499881;28;20048;-77
2023/01/03 21:06:54;;;;;;;6.60;6.40;;;;;;;7.01;100.00;102153.47;10499917;28;20072;-78
2023/01/03 21:11:56;;;;;;;6.68;6.47;;;;;;;7.01;100.00;102149.97;10497735;28;20056;-77
2023/01/03 21:16:59;;;;;;;21.35;8.75;;;;;;;7.03;100.00;102150.84;10492884;28;20051;-77
2023/01/03 21:22:01;;;;;;;7.45;7.25;;;;;;;7.00;100.00;102136.13;10498598;28;20462;-77
2023/01/03 21:27:03;;;;;;;7.63;7.43;;;;;;;6.97;100.00;102132.72;10497468;28;20677;-78
2023/01/03 21:32:07;;;;;;;7.68;7.18;;;;;;;6.97;100.00;102114.50;10498907;28;20048;-78
2023/01/03 21:37:10;;;;;;;7.18;6.97;;;;;;;6.98;100.00;102111.00;10497917;28;20052;-77
2023/01/03 21:47:33;;;;;;;7.43;7.23;;;;;;;7.02;100.00;102094.41;10496553;28;20052;-77
2023/01/03 21:52:36;;;;;;;6.65;6.45;;;;;;;7.02;100.00;102065.78;10498385;28;20484;-77
2023/01/03 21:57:38;;;;;;;6.78;6.57;;;;;;;7.07;100.00;102056.09;10463144;28;20045;-77
2023/01/03 22:08:03;;;;;;;6.57;6.38;;;;;;;7.17;100.00;102057.59;10468170;28;20449;-77
2023/01/03 22:13:07;;;;;;;6.88;6.68;;;;;;;6.96;100.00;102053.75;10456460;28;20095;-77
2023/01/03 22:18:11;;;;;;;6.43;6.22;;;;;;;6.99;100.00;102047.59;10455749;28;20053;-77
2023/01/03 22:23:15;;;;;;;6.85;6.65;;;;;;;7.15;100.00;102050.75;10486642;28;20052;-77
2023/01/03 22:28:18;;;;;;;6.43;6.22;;;;;;;7.23;100.00;102043.59;10502207;28;20412;-77
2023/01/03 22:33:20;;;;;;;7.50;7.30;;;;;;;7.32;100.00;102037.31;10504712;28;20049;-76
2023/01/03 22:38:22;;;;;;;6.95;6.75;;;;;;;7.24;100.00;102027.06;10505486;28;20048;-77
2023/01/03 22:43:25;;;;;;;7.05;6.60;;;;;;;7.35;100.00;102019.84;10503753;28;20427;-77
2023/01/03 22:48:27;;;;;;;7.63;7.43;;;;;;;7.41;100.00;102035.34;10505402;28;20053;-77
2023/01/03 22:53:32;;;;;;;6.97;6.78;;;;;;;7.44;100.00;102014.41;10504142;28;20483;-77
2023/01/03 22:58:35;;;;;;;209.75;197.55;;;;;;;7.49;100.00;102009.09;10503215;28;20131;-76
2023/01/03 23:03:38;;;;;;;14.27;13.68;;;;;;;7.54;100.00;101993.34;10504792;28;20052;-77
2023/01/03 23:08:41;;;;;;;11.73;11.32;;;;;;;7.49;100.00;101971.75;10503139;28;20045;-76
2023/01/03 23:13:43;;;;;;;12.07;11.68;;;;;;;7.72;100.00;101968.56;10503880;28;20059;-76
2023/01/03 23:18:46;;;;;;;114.65;105.57;;;;;;;7.56;100.00;101962.88;10504853;28;20040;-77
2023/01/03 23:23:49;;;;;;;15.30;14.75;;;;;;;7.63;100.00;101941.84;10504069;28;20049;-77
2023/01/03 23:28:56;;;;;;;12.65;12.25;;;;;;;7.77;100.00;101918.00;10502421;28;20040;-77
2023/01/03 23:33:59;;;;;;;12.10;11.70;;;;;;;7.77;100.00;101919.75;10502762;28;20126;-76
2023/01/03 23:39:02;;;;;;;13.32;12.80;;;;;;;7.63;100.00;101910.56;10502759;28;20048;-77
2023/01/03 23:44:04;;;;;;;13.07;12.60;;;;;;;7.72;100.00;101900.78;10503750;28;20048;-77
2023/01/03 23:49:08;;;;;;;11.95;11.48;;;;;;;7.75;100.00;101893.72;10468090;22;20074;-76
2023/01/03 23:54:11;;;;;;;12.88;12.45;;;;;;;7.70;100.00;101876.47;10321490;28;20050;-77
2023/01/03 23:59:13;;;;;;;13.02;12.57;;;;;;;7.67;100.00;101871.38;10339206;28;20042;-77
